Monday, July 28, 2014
16:32 UTC
  |  Log In   |  Register Free
Airport Search:

Clinton-Sampson County Airport
(KCTZ)

Clinton-Sampson County Airport Diagram
No Airport Diagram Available

FAA data valid effective July 24, 2014 until September 18, 2014 (unless otherwise noted).

 
 
 
 
 
 
 
 
 
 
 
 
 
 

Current Aviation Weather for Clinton-Sampson County Airport (KCTZ)

The most recent METAR observation for KCTZ was updated at: 1530 UTC
METAR Summary (Translated METAR)
KCTZ
281530Z AUTO 24006KT 10SM CLR 30/22 A2982 RMK AO2 T03040222
KDPL
(18.9 nm NE from KCTZ)
281535Z AUTO 24006KT 7SM CLR 30/20 A2982 RMK AO2 T02960200
TAF
No TAF information found within 50 nm of KCTZ
  Airport Weather Conditions for KCTZ

 Current Weather at CTZ
87° F
Fair
Southwest winds at 6.9 mph
CTZ NOAA Radar

Pressure: 29.82 in
Humidity: 62%
Wind: Southwest at 6.9 MPH (6 KT)
Dew Point: 72.0°F
Visibility: 10.00 mi


Airport Weather Forecast for KCTZ

Translated METAR and TAF for KCTZ
Translated METAR for KCTZ (1626 UTC 28 July 2014)
found at http://aviationweather.gov/adds/metars/
 
METAR text: KCTZ 281615Z AUTO 23006KT 10SM CLR 31/22 A2981 RMK AO2 T03130222
Conditions at: KCTZ (CLINTON , NC, US) observed 1615 UTC 28 July 2014
Temperature: 31.3°C (88°F)
Dewpoint: 22.2°C (72°F) [RH = 59%]
Pressure (altimeter): 29.81 inches Hg (1009.6 mb)
Winds: from the SW (230 degrees) at 7 MPH (6 knots; 3.1 m/s)
Visibility: 10 or more miles (16+ km)
Ceiling: at least 12,000 feet AGL
Clouds: sky clear below 12,000 feet AGL
Weather: automated observation with no human augmentation;
there may or may not be significant weather present at this time
Translated TAF for KCTZ

There is no translated TAF available for this airport

Find All Airport Services Find A Hotel Find A Rental Car Find A Golf Course Find A Restaurant $100 Hamburger



FBO's on the Field
FBO Company Facility Photos Services Transportation Aviation Fuel Prices: Prices include tax
Catering Weather Repair Courtesy Rental Type 100LL JetA JetA+ MOGAS 8087
 
Clinton Flying Service

This FBO has not yet been rated
FS:Shell
Last Updated: Jul-16
Login to update fuel prices
SS:
Contact Clinton Flying ServiceMore FBO Information
 
Add another FBO Facility Photos Catering Weather Repair Courtesy Rental Type 100LL JetA JetA+ MOGAS 8087
Services Transportation Aviation Fuel Prices: Prices include tax


GlobalAir.com Airport Resource Center model-print
model-print
model-print
model-print